Time;durP1;ratioP1;P1;durP2;ratioP2;P2;SDS_P1;SDS_P2;PMS_P1;PMS_P2;Temp;Humidity;BMP_temperature;BMP_pressure;BME280_temperature;BME280_humidity;BME280_pressure;Samples;Min_cycle;Max_cycle;Signal;HPM_P1;HPM_P2
2023/10/30 00:02:18;;;;;;;0.93;0.45;;;;;;;;;;5000822;28;20045;-81
2023/10/30 00:04:44;;;;;;;1.10;0.40;;;;;;;;;;5041641;28;20027;-81
2023/10/30 00:07:09;;;;;;;1.38;0.50;;;;;;;;;;5061036;28;20036;-81
2023/10/30 00:09:37;;;;;;;3.15;0.60;;;;;;;;;;5078163;28;20135;-82
2023/10/30 00:12:02;;;;;;;;;;;;;;;;;;5061933;28;20441;-81
2023/10/30 00:14:28;;;;;;;2.13;0.52;;;;;;;;;;5095395;28;19916;-81
2023/10/30 00:16:54;;;;;;;5.03;0.55;;;;;;;;;;5058043;28;20345;-81
2023/10/30 00:19:22;;;;;;;2.67;0.40;;;;;;;;;;5076003;28;20621;-81
2023/10/30 00:21:47;;;;;;;1.50;0.60;;;;;;;;;;5060441;28;20028;-81
2023/10/30 00:24:13;;;;;;;1.38;0.40;;;;;;;;;;5096417;28;20058;-80
2023/10/30 00:26:39;;;;;;;3.42;0.50;;;;;;;;;;5062274;28;20038;-82
2023/10/30 00:29:05;;;;;;;1.00;0.40;;;;;;;;;;5065504;28;20214;-81
2023/10/30 00:31:34;;;;;;;2.53;0.52;;;;;;;;;;5080331;28;20483;-82
2023/10/30 00:33:59;;;;;;;1.77;0.40;;;;;;;;;;5065557;28;20037;-82
2023/10/30 00:36:24;;;;;;;1.13;0.40;;;;;;;;;;5070034;28;20036;-81
2023/10/30 00:38:50;;;;;;;2.25;0.50;;;;;;;;;;5094426;28;20031;-82
2023/10/30 00:41:15;;;;;;;3.78;0.43;;;;;;;;;;5080771;28;20062;-81
2023/10/30 00:43:43;;;;;;;2.78;0.40;;;;;;;;;;5102662;28;20031;-82
2023/10/30 00:46:09;;;;;;;2.45;0.45;;;;;;;;;;5051601;28;20063;-80
2023/10/30 00:48:35;;;;;;;2.40;0.40;;;;;;;;;;5077320;28;20131;-79
2023/10/30 00:51:00;;;;;;;2.20;0.40;;;;;;;;;;5070205;28;20044;-80
2023/10/30 00:53:26;;;;;;;3.15;0.40;;;;;;;;;;5096607;28;20040;-79
2023/10/30 00:55:51;;;;;;;2.85;0.45;;;;;;;;;;5058759;28;20524;-80
2023/10/30 00:58:17;;;;;;;2.17;0.43;;;;;;;;;;5086949;28;20043;-80
2023/10/30 01:00:43;;;;;;;2.80;0.38;;;;;;;;;;5046537;28;20039;-79
2023/10/30 01:03:08;;;;;;;1.27;0.40;;;;;;;;;;5084059;28;20035;-79
2023/10/30 01:05:34;;;;;;;1.42;0.40;;;;;;;;;;5079131;28;20032;-79
2023/10/30 01:08:00;;;;;;;1.85;0.50;;;;;;;;;;5078988;28;20044;-80
2023/10/30 01:10:25;;;;;;;2.13;0.38;;;;;;;;;;5079952;28;20044;-80
2023/10/30 01:12:51;;;;;;;2.10;0.40;;;;;;;;;;5056370;28;20581;-79
2023/10/30 01:15:17;;;;;;;1.55;0.40;;;;;;;;;;5075908;28;20047;-81
2023/10/30 01:17:42;;;;;;;1.40;0.40;;;;;;;;;;5080898;28;20035;-80
2023/10/30 01:20:08;;;;;;;2.08;0.40;;;;;;;;;;5064203;28;20035;-79
2023/10/30 01:22:33;;;;;;;1.38;0.45;;;;;;;;;;5077356;28;20036;-79
2023/10/30 01:24:59;;;;;;;3.17;0.50;;;;;;;;;;5053295;28;20035;-80
2023/10/30 01:27:25;;;;;;;2.38;0.50;;;;;;;;;;5076479;28;20144;-79
2023/10/30 01:29:50;;;;;;;1.10;0.40;;;;;;;;;;5074556;28;20482;-80
2023/10/30 01:32:16;;;;;;;1.52;0.50;;;;;;;;;;5076609;28;20054;-80
2023/10/30 01:34:41;;;;;;;1.42;0.40;;;;;;;;;;5097620;28;20119;-79
2023/10/30 01:37:06;;;;;;;1.23;0.40;;;;;;;;;;5040311;28;20028;-79
2023/10/30 01:39:36;;;;;;;1.38;0.43;;;;;;;;;;5065646;28;20039;-79
2023/10/30 01:42:02;;;;;;;1.95;0.40;;;;;;;;;;5081657;28;20556;-79
2023/10/30 01:44:27;;;;;;;2.75;0.40;;;;;;;;;;5075454;28;20040;-78
2023/10/30 01:46:53;;;;;;;1.83;0.47;;;;;;;;;;5060142;28;20101;-79
2023/10/30 01:49:21;;;;;;;2.38;0.50;;;;;;;;;;5075275;28;20035;-80
2023/10/30 01:51:47;;;;;;;2.55;0.40;;;;;;;;;;5069314;28;20047;-80
2023/10/30 01:54:16;;;;;;;2.25;0.43;;;;;;;;;;5072504;28;20040;-81
2023/10/30 01:56:41;;;;;;;5.20;0.50;;;;;;;;;;5063354;28;20028;-79
2023/10/30 01:59:07;;;;;;;2.55;0.40;;;;;;;;;;5061796;28;20560;-78
2023/10/30 02:01:38;;;;;;;1.73;0.52;;;;;;;;;;5060543;28;20479;-79
2023/10/30 02:04:05;;;;;;;1.75;0.40;;;;;;;;;;5065931;28;20028;-79
2023/10/30 02:06:30;;;;;;;1.52;0.50;;;;;;;;;;5048531;28;20071;-81
2023/10/30 02:09:00;;;;;;;1.48;0.40;;;;;;;;;;5084872;28;20063;-79
2023/10/30 02:11:25;;;;;;;2.20;0.50;;;;;;;;;;5069939;28;20042;-80
2023/10/30 02:13:57;;;;;;;1.50;0.45;;;;;;;;;;5078647;28;20032;-79
2023/10/30 02:16:23;;;;;;;2.55;0.50;;;;;;;;;;5059351;28;20040;-79
2023/10/30 02:18:49;;;;;;;2.83;0.60;;;;;;;;;;5044345;28;20031;-79
2023/10/30 02:21:14;;;;;;;1.85;0.40;;;;;;;;;;5047703;28;20095;-80
2023/10/30 02:23:39;;;;;;;3.05;0.40;;;;;;;;;;5042852;28;20036;-81
2023/10/30 02:26:07;;;;;;;2.10;0.50;;;;;;;;;;5094336;28;20048;-80
2023/10/30 02:28:33;;;;;;;1.85;0.50;;;;;;;;;;5059907;28;20051;-80
2023/10/30 02:30:58;;;;;;;1.98;0.55;;;;;;;;;;5095774;28;20511;-81
2023/10/30 02:33:25;;;;;;;3.67;0.70;;;;;;;;;;5080237;28;20040;-80
2023/10/30 02:35:51;;;;;;;3.17;0.50;;;;;;;;;;5052032;28;20130;-80
2023/10/30 02:38:16;;;;;;;2.85;0.50;;;;;;;;;;5059718;28;20039;-79
2023/10/30 02:40:42;;;;;;;1.77;0.40;;;;;;;;;;5095727;28;20088;-79
2023/10/30 02:43:07;;;;;;;2.70;0.55;;;;;;;;;;5084863;28;20510;-81
2023/10/30 02:45:32;;;;;;;1.33;0.50;;;;;;;;;;5063513;28;20407;-80
2023/10/30 02:47:58;;;;;;;1.48;0.50;;;;;;;;;;5067783;28;20032;-80
2023/10/30 02:50:23;;;;;;;2.97;0.45;;;;;;;;;;5075980;28;20036;-79
2023/10/30 02:52:52;;;;;;;3.75;0.70;;;;;;;;;;5056840;28;20108;-78
2023/10/30 02:55:17;;;;;;;1.38;0.40;;;;;;;;;;5061253;28;20617;-79
2023/10/30 02:57:43;;;;;;;1.83;0.32;;;;;;;;;;5098505;28;20118;-80
2023/10/30 03:00:09;;;;;;;4.43;0.68;;;;;;;;;;5062179;28;20036;-79
2023/10/30 03:02:46;;;;;;;2.83;0.70;;;;;;;;;;5073629;28;20036;-78
2023/10/30 03:05:11;;;;;;;;;;;;;;;;;;5069800;28;20065;-80
2023/10/30 03:07:37;;;;;;;2.40;0.60;;;;;;;;;;5069723;28;20831;-79
2023/10/30 03:10:02;;;;;;;2.38;0.30;;;;;;;;;;5094002;28;20617;-80
2023/10/30 03:12:33;;;;;;;3.83;0.50;;;;;;;;;;5067383;28;20035;-80
2023/10/30 03:15:12;;;;;;;1.67;0.40;;;;;;;;;;5066236;28;20086;-79
2023/10/30 03:17:37;;;;;;;3.28;0.85;;;;;;;;;;5070879;28;20087;-81
2023/10/30 03:20:03;;;;;;;1.73;0.50;;;;;;;;;;5079277;28;20123;-80
2023/10/30 03:22:28;;;;;;;1.38;0.40;;;;;;;;;;5100503;28;20039;-80
2023/10/30 03:24:54;;;;;;;2.80;0.50;;;;;;;;;;5090392;28;20035;-80
2023/10/30 03:27:19;;;;;;;2.50;0.50;;;;;;;;;;5081880;28;20134;-80
2023/10/30 03:29:44;;;;;;;4.60;0.52;;;;;;;;;;5071689;28;20090;-81
2023/10/30 03:32:10;;;;;;;3.17;0.55;;;;;;;;;;5089086;28;20039;-81
2023/10/30 03:34:35;;;;;;;1.35;0.50;;;;;;;;;;5064372;28;20051;-80
2023/10/30 03:37:01;;;;;;;3.70;0.50;;;;;;;;;;5078098;28;20028;-80
2023/10/30 03:39:26;;;;;;;3.45;0.52;;;;;;;;;;5082474;28;20036;-80
2023/10/30 03:41:51;;;;;;;2.53;0.50;;;;;;;;;;5081884;28;20032;-79
2023/10/30 03:44:19;;;;;;;2.92;0.50;;;;;;;;;;5098393;28;20380;-81
2023/10/30 03:46:45;;;;;;;4.20;0.50;;;;;;;;;;5081074;28;20028;-81
2023/10/30 03:49:10;;;;;;;4.95;0.52;;;;;;;;;;5070394;28;20034;-81
2023/10/30 03:51:36;;;;;;;2.33;0.50;;;;;;;;;;5080764;28;20047;-79
2023/10/30 03:54:01;;;;;;;5.65;0.70;;;;;;;;;;5058868;28;20451;-79
2023/10/30 03:56:29;;;;;;;2.22;0.57;;;;;;;;;;5097949;28;20036;-80
2023/10/30 03:58:54;;;;;;;4.03;0.40;;;;;;;;;;5081236;28;20475;-80
2023/10/30 04:01:22;;;;;;;3.92;0.65;;;;;;;;;;5064878;28;20038;-79
2023/10/30 04:03:48;;;;;;;4.20;0.63;;;;;;;;;;5069288;28;20028;-80
2023/10/30 04:06:13;;;;;;;5.43;1.70;;;;;;;;;;5086986;28;20036;-80
2023/10/30 04:08:39;;;;;;;3.50;1.00;;;;;;;;;;5065027;28;20032;-79
2023/10/30 04:11:10;;;;;;;2.70;0.60;;;;;;;;;;5075338;28;20027;-80
2023/10/30 04:13:35;;;;;;;5.03;0.60;;;;;;;;;;5071789;28;20540;-79
2023/10/30 04:16:01;;;;;;;2.70;0.50;;;;;;;;;;5095425;28;20040;-80
2023/10/30 04:18:27;;;;;;;2.85;0.70;;;;;;;;;;5080747;28;20036;-80
2023/10/30 04:20:52;;;;;;;1.77;0.50;;;;;;;;;;5069346;28;20392;-80
2023/10/30 04:23:18;;;;;;;2.08;0.40;;;;;;;;;;5064783;28;20077;-80
2023/10/30 04:25:47;;;;;;;3.67;0.60;;;;;;;;;;5077563;28;20172;-80
2023/10/30 04:28:12;;;;;;;2.67;0.47;;;;;;;;;;5052165;28;20090;-80
2023/10/30 04:30:37;;;;;;;1.85;0.52;;;;;;;;;;5061416;28;20060;-80
2023/10/30 04:33:03;;;;;;;3.05;0.52;;;;;;;;;;5076570;28;20089;-80
2023/10/30 04:35:29;;;;;;;2.60;0.55;;;;;;;;;;5055853;28;20066;-80
2023/10/30 04:37:55;;;;;;;3.53;0.60;;;;;;;;;;5060319;28;20048;-79
2023/10/30 04:40:22;;;;;;;3.22;0.60;;;;;;;;;;5065623;28;20032;-81
2023/10/30 04:42:48;;;;;;;3.67;0.68;;;;;;;;;;5056474;28;20028;-81
2023/10/30 04:45:13;;;;;;;2.42;0.60;;;;;;;;;;5077620;28;20058;-80
2023/10/30 04:47:39;;;;;;;4.68;0.85;;;;;;;;;;5096520;28;20084;-80
2023/10/30 04:50:05;;;;;;;2.25;0.50;;;;;;;;;;5060287;28;20146;-80
2023/10/30 04:52:31;;;;;;;5.22;0.57;;;;;;;;;;5067209;28;20036;-80
2023/10/30 04:54:56;;;;;;;3.67;0.70;;;;;;;;;;5067623;28;20097;-80
2023/10/30 04:57:21;;;;;;;3.28;0.60;;;;;;;;;;5061368;28;20047;-80
2023/10/30 04:59:47;;;;;;;3.15;0.60;;;;;;;;;;5075437;28;20045;-81
2023/10/30 05:02:12;;;;;;;3.88;0.80;;;;;;;;;;5075759;28;20044;-81
2023/10/30 05:04:38;;;;;;;2.92;0.70;;;;;;;;;;5093942;28;20031;-81
2023/10/30 05:07:04;;;;;;;5.25;0.70;;;;;;;;;;5075684;28;20503;-81
2023/10/30 05:09:29;;;;;;;3.65;0.52;;;;;;;;;;5050717;28;20499;-80
2023/10/30 05:11:54;;;;;;;3.05;0.80;;;;;;;;;;5078952;28;20032;-81
2023/10/30 05:14:20;;;;;;;2.38;0.50;;;;;;;;;;5061432;28;20479;-81
2023/10/30 05:16:46;;;;;;;2.53;0.60;;;;;;;;;;5060545;28;20744;-81
2023/10/30 05:19:11;;;;;;;1.92;0.50;;;;;;;;;;5051279;28;20040;-81
2023/10/30 05:21:37;;;;;;;3.22;0.65;;;;;;;;;;5050376;28;20062;-81
2023/10/30 05:24:03;;;;;;;3.35;0.80;;;;;;;;;;5060738;28;20168;-81
2023/10/30 05:26:28;;;;;;;2.72;0.68;;;;;;;;;;5074228;28;20040;-82
2023/10/30 05:29:01;;;;;;;3.00;0.80;;;;;;;;;;5093354;28;20101;-81
2023/10/30 05:31:27;;;;;;;4.13;0.95;;;;;;;;;;5062348;28;20490;-82
2023/10/30 05:33:55;;;;;;;4.13;0.90;;;;;;;;;;5060252;28;20032;-82
2023/10/30 05:36:25;;;;;;;3.20;0.68;;;;;;;;;;5038599;28;20386;-82
2023/10/30 05:38:51;;;;;;;5.13;0.60;;;;;;;;;;5081692;28;20565;-83
2023/10/30 05:41:16;;;;;;;4.57;0.80;;;;;;;;;;5034072;28;20107;-82
2023/10/30 05:43:41;;;;;;;5.25;0.82;;;;;;;;;;5079621;28;20487;-83
2023/10/30 05:46:07;;;;;;;4.38;1.25;;;;;;;;;;5075658;28;20508;-83
2023/10/30 05:48:32;;;;;;;2.63;0.60;;;;;;;;;;5088728;28;20043;-84
2023/10/30 05:50:58;;;;;;;4.50;0.90;;;;;;;;;;5074163;28;20035;-83
2023/10/30 05:53:23;;;;;;;4.03;0.80;;;;;;;;;;5041576;28;20423;-83
2023/10/30 05:55:49;;;;;;;3.63;0.60;;;;;;;;;;5055268;28;20381;-81
2023/10/30 05:58:23;;;;;;;3.08;0.63;;;;;;;;;;5094657;28;20046;-80
2023/10/30 06:00:50;;;;;;;4.35;0.70;;;;;;;;;;5076482;28;20024;-81
2023/10/30 06:03:18;;;;;;;4.65;1.17;;;;;;;;;;5096974;28;20417;-81
2023/10/30 06:05:44;;;;;;;4.13;0.90;;;;;;;;;;5067400;28;20107;-81
2023/10/30 06:08:23;;;;;;;;;;;;;;;;;;;;;
2023/10/30 06:10:50;;;;;;;2.90;0.73;;;;;;;;;;5078598;28;20208;-83
2023/10/30 06:13:15;;;;;;;4.22;0.80;;;;;;;;;;5063631;28;20104;-81
2023/10/30 06:15:41;;;;;;;2.20;0.60;;;;;;;;;;5075686;28;20031;-82
2023/10/30 06:18:07;;;;;;;3.67;0.85;;;;;;;;;;5078427;28;20027;-81
2023/10/30 06:20:33;;;;;;;4.50;0.60;;;;;;;;;;5077991;28;20135;-82
2023/10/30 06:23:00;;;;;;;3.58;0.70;;;;;;;;;;5097140;28;20084;-81
2023/10/30 06:25:26;;;;;;;2.58;0.80;;;;;;;;;;5062418;28;20062;-81
2023/10/30 06:28:14;;;;;;;2.03;0.60;;;;;;;;;;5077679;28;20048;-80
2023/10/30 06:30:40;;;;;;;3.92;0.60;;;;;;;;;;5030883;28;20041;-80
2023/10/30 06:33:06;;;;;;;4.00;0.85;;;;;;;;;;5038246;28;20087;-79
2023/10/30 06:35:31;;;;;;;5.35;0.95;;;;;;;;;;5028364;28;20044;-80
2023/10/30 06:37:56;;;;;;;3.85;0.77;;;;;;;;;;5023827;28;20085;-81
2023/10/30 06:40:22;;;;;;;3.83;0.70;;;;;;;;;;5026944;28;20526;-79
2023/10/30 06:42:47;;;;;;;2.28;0.57;;;;;;;;;;5036954;28;20040;-81
2023/10/30 06:45:13;;;;;;;4.00;0.73;;;;;;;;;;5028415;28;20432;-80
2023/10/30 06:47:39;;;;;;;2.60;0.77;;;;;;;;;;5033626;28;20102;-82
2023/10/30 06:50:05;;;;;;;4.68;0.60;;;;;;;;;;5030580;28;20497;-82
2023/10/30 06:52:32;;;;;;;2.78;0.80;;;;;;;;;;5044184;28;20136;-81
2023/10/30 06:54:57;;;;;;;3.45;0.75;;;;;;;;;;5029604;28;20369;-80
2023/10/30 06:57:23;;;;;;;6.18;1.00;;;;;;;;;;5023275;28;20044;-80
2023/10/30 06:59:55;;;;;;;5.63;0.90;;;;;;;;;;5010415;28;20037;-80
2023/10/30 07:02:21;;;;;;;4.75;0.70;;;;;;;;;;5025628;28;20048;-81
2023/10/30 07:04:52;;;;;;;2.47;0.60;;;;;;;;;;5038515;28;20037;-81
2023/10/30 07:07:18;;;;;;;2.72;0.57;;;;;;;;;;5032744;28;20039;-80
2023/10/30 07:09:46;;;;;;;2.30;0.60;;;;;;;;;;5099839;28;20034;-81
2023/10/30 07:12:11;;;;;;;3.67;0.90;;;;;;;;;;5061793;28;20484;-81
2023/10/30 07:14:39;;;;;;;3.95;0.70;;;;;;;;;;5087981;28;20118;-81
2023/10/30 07:17:05;;;;;;;3.70;0.68;;;;;;;;;;5099420;28;20035;-80
2023/10/30 07:19:38;;;;;;;4.10;0.70;;;;;;;;;;5080643;28;20036;-80
2023/10/30 07:22:04;;;;;;;2.75;0.60;;;;;;;;;;5058240;28;20034;-81
2023/10/30 07:24:29;;;;;;;4.53;0.90;;;;;;;;;;5096342;28;20040;-80
2023/10/30 07:26:57;;;;;;;4.45;0.65;;;;;;;;;;5075829;28;20055;-79
2023/10/30 07:29:23;;;;;;;4.95;0.80;;;;;;;;;;5085396;28;20040;-79
2023/10/30 07:31:50;;;;;;;2.65;0.77;;;;;;;;;;5077591;28;20043;-80
2023/10/30 07:34:16;;;;;;;3.92;0.60;;;;;;;;;;5049513;28;20040;-80
2023/10/30 07:36:41;;;;;;;5.25;1.20;;;;;;;;;;5058550;28;20406;-80
2023/10/30 07:39:08;;;;;;;3.83;0.70;;;;;;;;;;5089796;28;20039;-80
2023/10/30 07:41:46;;;;;;;2.90;0.77;;;;;;;;;;5096143;28;20032;-80
2023/10/30 07:44:11;;;;;;;2.05;0.50;;;;;;;;;;5053753;28;20032;-80
2023/10/30 07:46:37;;;;;;;3.15;0.60;;;;;;;;;;5078800;28;20490;-80
2023/10/30 07:49:06;;;;;;;4.43;0.70;;;;;;;;;;5086627;28;20032;-81
2023/10/30 07:51:34;;;;;;;4.97;0.70;;;;;;;;;;5086353;28;20094;-80
2023/10/30 07:54:00;;;;;;;5.65;1.10;;;;;;;;;;5077664;28;20035;-80
2023/10/30 07:56:33;;;;;;;4.45;0.93;;;;;;;;;;5064179;28;20554;-80
2023/10/30 07:58:59;;;;;;;3.38;0.75;;;;;;;;;;5064677;28;20028;-80
2023/10/30 08:01:25;;;;;;;2.22;0.55;;;;;;;;;;5054608;28;20042;-81
2023/10/30 08:03:57;;;;;;;3.65;0.90;;;;;;;;;;5063454;28;20032;-80
2023/10/30 08:06:24;;;;;;;4.97;0.70;;;;;;;;;;5042641;28;20040;-81
2023/10/30 08:08:49;;;;;;;4.15;0.70;;;;;;;;;;5081689;28;20034;-81
2023/10/30 08:11:15;;;;;;;4.32;0.70;;;;;;;;;;5084317;28;20123;-80
2023/10/30 08:13:40;;;;;;;4.53;0.68;;;;;;;;;;5077436;28;20115;-79
2023/10/30 08:16:10;;;;;;;4.60;0.90;;;;;;;;;;5096642;28;20043;-78
2023/10/30 08:18:36;;;;;;;5.57;1.05;;;;;;;;;;5059201;28;20119;-81
2023/10/30 08:21:04;;;;;;;3.67;0.90;;;;;;;;;;5079680;28;20111;-80
2023/10/30 08:23:30;;;;;;;3.63;0.82;;;;;;;;;;5065293;28;20052;-80
2023/10/30 08:26:01;;;;;;;5.20;0.80;;;;;;;;;;5079346;28;20027;-81
2023/10/30 08:28:26;;;;;;;3.53;0.60;;;;;;;;;;5046991;28;20485;-81
2023/10/30 08:30:52;;;;;;;6.32;1.10;;;;;;;;;;5059562;28;20028;-81
2023/10/30 08:33:24;;;;;;;6.40;1.10;;;;;;;;;;5074524;28;20048;-80
2023/10/30 08:35:50;;;;;;;2.65;0.60;;;;;;;;;;5066289;28;20158;-82
2023/10/30 08:38:15;;;;;;;3.92;0.85;;;;;;;;;;5066228;28;20444;-82
2023/10/30 08:40:41;;;;;;;3.60;0.85;;;;;;;;;;5051910;28;20043;-79
2023/10/30 08:43:07;;;;;;;2.72;0.80;;;;;;;;;;5067025;28;20237;-81
2023/10/30 08:45:38;;;;;;;3.58;0.80;;;;;;;;;;5081610;28;20091;-81
2023/10/30 08:48:05;;;;;;;4.32;0.85;;;;;;;;;;5035628;28;20386;-79
2023/10/30 08:50:30;;;;;;;6.35;0.85;;;;;;;;;;5095205;28;20135;-80
2023/10/30 08:52:55;;;;;;;3.40;0.70;;;;;;;;;;5066286;28;20117;-82
2023/10/30 08:55:24;;;;;;;5.10;0.80;;;;;;;;;;5076782;28;20037;-80
2023/10/30 08:57:49;;;;;;;3.80;1.15;;;;;;;;;;5076851;28;20047;-80
2023/10/30 09:00:16;;;;;;;10.10;1.20;;;;;;;;;;5073273;28;20040;-81
2023/10/30 09:02:42;;;;;;;4.00;0.70;;;;;;;;;;5095025;28;20070;-80
2023/10/30 09:05:08;;;;;;;8.07;2.08;;;;;;;;;;5063626;28;20508;-81
2023/10/30 09:07:33;;;;;;;7.57;1.10;;;;;;;;;;5096159;28;20156;-80
2023/10/30 09:09:59;;;;;;;3.03;0.80;;;;;;;;;;5091942;28;20040;-80
2023/10/30 09:12:24;;;;;;;5.05;0.82;;;;;;;;;;5075140;28;20071;-81
2023/10/30 09:14:52;;;;;;;4.03;0.88;;;;;;;;;;5082089;28;20038;-80
2023/10/30 09:17:18;;;;;;;5.55;0.82;;;;;;;;;;5062394;28;20044;-80
2023/10/30 09:19:48;;;;;;;4.65;0.95;;;;;;;;;;5094261;28;20550;-80
2023/10/30 09:22:14;;;;;;;6.13;1.55;;;;;;;;;;5076541;28;20044;-81
2023/10/30 09:24:39;;;;;;;5.65;0.95;;;;;;;;;;5095306;28;20095;-81
2023/10/30 09:27:05;;;;;;;4.45;0.90;;;;;;;;;;5059290;28;20129;-81
2023/10/30 09:29:30;;;;;;;5.00;0.90;;;;;;;;;;5079374;28;20036;-80
2023/10/30 09:32:02;;;;;;;6.35;1.08;;;;;;;;;;5082167;28;20123;-80
2023/10/30 09:34:27;;;;;;;2.53;0.80;;;;;;;;;;5063434;28;20265;-78
2023/10/30 09:36:53;;;;;;;5.47;0.90;;;;;;;;;;5092791;28;20115;-79
2023/10/30 09:39:21;;;;;;;3.50;0.73;;;;;;;;;;5094741;28;20554;-79
2023/10/30 09:41:46;;;;;;;5.45;1.00;;;;;;;;;;5064206;28;20039;-82
2023/10/30 09:44:24;;;;;;;8.05;1.25;;;;;;;;;;5078477;28;20395;-80
2023/10/30 09:46:50;;;;;;;3.65;1.30;;;;;;;;;;5058351;28;20043;-79
2023/10/30 09:49:16;;;;;;;5.10;1.30;;;;;;;;;;5078863;28;20036;-80
2023/10/30 09:51:43;;;;;;;4.80;1.20;;;;;;;;;;5058909;28;20544;-80
2023/10/30 09:54:09;;;;;;;4.60;0.88;;;;;;;;;;5067965;28;20028;-79
2023/10/30 09:56:35;;;;;;;5.07;1.05;;;;;;;;;;5075177;28;20040;-79
2023/10/30 09:59:00;;;;;;;3.95;0.88;;;;;;;;;;5076887;28;20033;-79
2023/10/30 10:01:31;;;;;;;6.32;1.20;;;;;;;;;;5083191;28;20035;-79
2023/10/30 10:03:56;;;;;;;5.38;1.02;;;;;;;;;;5094172;28;20089;-80
2023/10/30 10:06:22;;;;;;;8.50;1.45;;;;;;;;;;5092362;28;20032;-79
2023/10/30 10:08:47;;;;;;;4.93;0.80;;;;;;;;;;5065142;28;20056;-80
2023/10/30 10:11:12;;;;;;;4.47;1.05;;;;;;;;;;5067918;28;20381;-81
2023/10/30 10:13:43;;;;;;;3.58;0.80;;;;;;;;;;5091753;28;20024;-79
2023/10/30 10:16:31;;;;;;;7.63;0.90;;;;;;;;;;5074203;28;20048;-82
2023/10/30 10:18:56;;;;;;;5.70;1.23;;;;;;;;;;5032852;28;20037;-80
2023/10/30 10:21:22;;;;;;;4.43;0.90;;;;;;;;;;5015147;28;20443;-81
2023/10/30 10:23:48;;;;;;;3.22;0.70;;;;;;;;;;5030067;28;20400;-80
2023/10/30 10:26:14;;;;;;;3.10;0.80;;;;;;;;;;5020779;28;20033;-80
2023/10/30 10:28:44;;;;;;;5.70;0.95;;;;;;;;;;5010311;28;20050;-80
2023/10/30 10:31:10;;;;;;;6.45;0.90;;;;;;;;;;4967285;28;20042;-80
2023/10/30 10:33:36;;;;;;;6.78;0.95;;;;;;;;;;4996627;28;20034;-80
2023/10/30 10:36:03;;;;;;;4.90;0.80;;;;;;;;;;4997500;28;20041;-79
2023/10/30 10:38:29;;;;;;;3.72;0.90;;;;;;;;;;4994833;28;20861;-80
2023/10/30 10:40:56;;;;;;;4.55;0.60;;;;;;;;;;4977934;28;20778;-81
2023/10/30 10:43:22;;;;;;;4.10;0.95;;;;;;;;;;4994734;28;20447;-80
2023/10/30 10:45:49;;;;;;;3.95;0.90;;;;;;;;;;5010482;28;20041;-80
2023/10/30 10:48:18;;;;;;;3.20;0.65;;;;;;;;;;5013249;28;20048;-80
2023/10/30 10:50:44;;;;;;;3.13;0.70;;;;;;;;;;4999426;28;20088;-81
2023/10/30 10:53:11;;;;;;;6.20;0.90;;;;;;;;;;5010158;28;20605;-82
2023/10/30 10:55:42;;;;;;;4.35;1.05;;;;;;;;;;5016217;28;20092;-80
2023/10/30 10:58:09;;;;;;;5.18;0.82;;;;;;;;;;5058235;28;20500;-81
2023/10/30 11:00:46;;;;;;;6.03;0.80;;;;;;;;;;5060886;28;20128;-81
2023/10/30 11:03:15;;;;;;;6.90;1.58;;;;;;;;;;5063468;28;20480;-81
2023/10/30 11:05:41;;;;;;;6.20;1.17;;;;;;;;;;5041421;28;20066;-80
2023/10/30 11:08:29;;;;;;;2.92;0.90;;;;;;;;;;5051904;28;20051;-81
2023/10/30 11:11:17;;;;;;;5.18;1.33;;;;;;;;;;5045154;28;20495;-79
2023/10/30 11:14:11;;;;;;;3.60;0.68;;;;;;;;;;5023141;28;20043;-81
2023/10/30 11:16:50;;;;;;;5.43;0.98;;;;;;;;;;5056308;28;20163;-81
2023/10/30 11:19:21;;;;;;;5.45;0.90;;;;;;;;;;5053337;28;20094;-80
2023/10/30 11:21:48;;;;;;;3.47;0.60;;;;;;;;;;5055095;28;20048;-82
2023/10/30 11:24:43;;;;;;;3.03;0.50;;;;;;;;;;5048425;28;20032;-83
2023/10/30 11:27:27;;;;;;;3.58;0.70;;;;;;;;;;5045285;28;20056;-81
2023/10/30 11:29:55;;;;;;;3.35;0.75;;;;;;;;;;5081667;28;20046;-80
2023/10/30 11:32:21;;;;;;;3.80;0.68;;;;;;;;;;5095315;28;20474;-81
2023/10/30 11:34:46;;;;;;;3.65;0.90;;;;;;;;;;5073758;28;20032;-82
2023/10/30 11:37:14;;;;;;;3.92;1.13;;;;;;;;;;5069839;28;20091;-80
2023/10/30 11:39:41;;;;;;;4.63;0.90;;;;;;;;;;5096752;28;20437;-80
2023/10/30 11:42:25;;;;;;;3.67;0.70;;;;;;;;;;5065314;28;20103;-80
2023/10/30 11:44:50;;;;;;;3.75;0.52;;;;;;;;;;5079593;28;20036;-81
2023/10/30 11:47:24;;;;;;;3.97;0.70;;;;;;;;;;5097017;28;20506;-81
2023/10/30 11:49:50;;;;;;;4.07;0.55;;;;;;;;;;5062614;28;20048;-81
2023/10/30 11:52:15;;;;;;;3.15;0.70;;;;;;;;;;5060194;28;20583;-80
2023/10/30 11:54:44;;;;;;;4.75;0.80;;;;;;;;;;5071123;28;20062;-80
2023/10/30 11:57:10;;;;;;;3.03;0.55;;;;;;;;;;5068688;28;20035;-80
2023/10/30 11:59:38;;;;;;;5.45;0.93;;;;;;;;;;5050721;28;20044;-79
2023/10/30 12:02:09;;;;;;;3.08;0.70;;;;;;;;;;5046192;28;20391;-80
2023/10/30 12:04:40;;;;;;;3.05;0.68;;;;;;;;;;5084357;28;20060;-79
2023/10/30 12:07:05;;;;;;;3.88;0.80;;;;;;;;;;5096874;28;20591;-79
2023/10/30 12:09:31;;;;;;;4.47;1.08;;;;;;;;;;5096078;28;20146;-79
2023/10/30 12:11:56;;;;;;;3.78;0.80;;;;;;;;;;5083335;28;20553;-80
2023/10/30 12:14:21;;;;;;;3.80;0.90;;;;;;;;;;5067123;28;20082;-82
2023/10/30 12:16:51;;;;;;;4.70;0.80;;;;;;;;;;5036950;28;20028;-79
2023/10/30 12:19:22;;;;;;;4.63;0.90;;;;;;;;;;5084779;28;20417;-81
2023/10/30 12:21:48;;;;;;;4.70;1.10;;;;;;;;;;5079103;28;20055;-80
2023/10/30 12:24:24;;;;;;;3.13;0.80;;;;;;;;;;5077180;28;20036;-86
2023/10/30 12:26:50;;;;;;;4.30;0.60;;;;;;;;;;5048465;28;20048;-86
2023/10/30 12:29:22;;;;;;;3.53;0.80;;;;;;;;;;5054362;28;20071;-86
2023/10/30 12:32:02;;;;;;;5.85;0.73;;;;;;;;;;5043515;28;20500;-85
2023/10/30 12:34:38;;;;;;;4.55;0.88;;;;;;;;;;5054378;28;20048;-89
2023/10/30 12:37:28;;;;;;;4.30;0.80;;;;;;;;;;5048350;28;20028;-90
2023/10/30 12:40:09;;;;;;;2.90;0.50;;;;;;;;;;5036846;28;20034;-88
2023/10/30 12:42:45;;;;;;;3.33;0.77;;;;;;;;;;5044213;28;20092;-89
2023/10/30 12:45:14;;;;;;;4.03;0.80;;;;;;;;;;5047219;28;20036;-88
2023/10/30 12:47:41;;;;;;;4.55;1.08;;;;;;;;;;5065240;28;20398;-91
2023/10/30 12:50:07;;;;;;;3.08;0.70;;;;;;;;;;5059650;28;20084;-84
2023/10/30 12:52:33;;;;;;;3.60;0.77;;;;;;;;;;5056690;28;20105;-90
2023/10/30 12:55:05;;;;;;;5.07;1.00;;;;;;;;;;5050570;28;20036;-89
2023/10/30 12:57:30;;;;;;;6.05;1.10;;;;;;;;;;5059184;28;20041;-89
2023/10/30 12:59:56;;;;;;;6.38;0.85;;;;;;;;;;5036292;28;20395;-87
2023/10/30 13:02:21;;;;;;;4.53;1.00;;;;;;;;;;5059169;28;20036;-88
2023/10/30 13:04:47;;;;;;;2.67;0.70;;;;;;;;;;5047765;28;20044;-86
2023/10/30 13:07:16;;;;;;;4.35;0.80;;;;;;;;;;5049313;28;20044;-88
2023/10/30 13:09:42;;;;;;;5.32;0.80;;;;;;;;;;5047548;28;20024;-90
2023/10/30 13:12:13;;;;;;;2.58;0.68;;;;;;;;;;5054461;28;20428;-90
2023/10/30 13:14:39;;;;;;;3.30;0.70;;;;;;;;;;5038997;28;20040;-90
2023/10/30 13:17:06;;;;;;;7.38;1.05;;;;;;;;;;5045150;28;20031;-89
2023/10/30 13:19:32;;;;;;;;;;;;;;;;;;5037649;28;20335;-89
2023/10/30 13:22:02;;;;;;;6.35;0.82;;;;;;;;;;5078091;28;20007;-90
2023/10/30 13:24:28;;;;;;;10.20;0.90;;;;;;;;;;5051461;28;20465;-91
2023/10/30 13:26:54;;;;;;;5.88;0.80;;;;;;;;;;5076041;28;20055;-89
2023/10/30 13:29:28;;;;;;;5.35;1.00;;;;;;;;;;5070484;28;20036;-88
2023/10/30 13:31:55;;;;;;;2.50;0.70;;;;;;;;;;5097250;28;20566;-92
2023/10/30 13:34:20;;;;;;;4.47;1.50;;;;;;;;;;5075924;28;20573;-86
2023/10/30 13:36:51;;;;;;;5.13;0.93;;;;;;;;;;5086198;28;20089;-91
2023/10/30 13:39:16;;;;;;;5.65;1.00;;;;;;;;;;5095737;28;20498;-88
2023/10/30 13:41:44;;;;;;;3.85;0.90;;;;;;;;;;5042065;28;20032;-91
2023/10/30 13:44:09;;;;;;;4.68;0.90;;;;;;;;;;5053743;28;20123;-90
2023/10/30 13:46:34;;;;;;;2.33;0.60;;;;;;;;;;5066705;28;20117;-88
2023/10/30 13:49:00;;;;;;;3.75;0.88;;;;;;;;;;5069846;28;20173;-91
2023/10/30 13:51:25;;;;;;;3.15;0.73;;;;;;;;;;5054751;28;20042;-90
2023/10/30 13:53:53;;;;;;;4.63;1.38;;;;;;;;;;5062431;28;20036;-88
2023/10/30 13:56:20;;;;;;;4.20;1.00;;;;;;;;;;5077635;28;20043;-87
2023/10/30 13:58:51;;;;;;;7.15;1.10;;;;;;;;;;5081021;28;20031;-90
2023/10/30 14:01:18;;;;;;;6.93;1.08;;;;;;;;;;5064231;28;20039;-88
2023/10/30 14:03:43;;;;;;;5.40;0.90;;;;;;;;;;5037314;28;20037;-86
2023/10/30 14:06:08;;;;;;;3.97;1.00;;;;;;;;;;5068587;28;20376;-89
2023/10/30 14:08:34;;;;;;;5.43;1.27;;;;;;;;;;5078489;28;20043;-91
2023/10/30 14:11:02;;;;;;;4.78;1.10;;;;;;;;;;5077782;28;20028;-92
2023/10/30 14:13:27;;;;;;;4.97;0.82;;;;;;;;;;5059382;28;20550;-91
2023/10/30 14:15:57;;;;;;;4.65;0.90;;;;;;;;;;5052030;28;20040;-92
2023/10/30 14:18:23;;;;;;;4.38;0.85;;;;;;;;;;5078083;28;20038;-90
2023/10/30 14:20:48;;;;;;;5.97;1.00;;;;;;;;;;5096412;28;20728;-88
2023/10/30 14:23:14;;;;;;;3.95;0.90;;;;;;;;;;5076560;28;20032;-90
2023/10/30 14:25:40;;;;;;;4.35;0.95;;;;;;;;;;5067811;28;20120;-90
2023/10/30 14:28:05;;;;;;;3.85;0.70;;;;;;;;;;5058253;28;20082;-89
2023/10/30 14:30:30;;;;;;;4.97;0.70;;;;;;;;;;5069636;28;20096;-91
2023/10/30 14:32:59;;;;;;;5.82;0.80;;;;;;;;;;5075565;28;20047;-90
2023/10/30 14:35:24;;;;;;;2.80;0.65;;;;;;;;;;5069855;28;20047;-91
2023/10/30 14:37:50;;;;;;;3.92;0.77;;;;;;;;;;5096870;28;20498;-91
2023/10/30 14:40:24;;;;;;;4.45;0.77;;;;;;;;;;5082597;28;20055;-91
2023/10/30 14:43:10;;;;;;;4.57;1.10;;;;;;;;;;5095195;28;20031;-90
2023/10/30 14:45:35;;;;;;;5.22;0.90;;;;;;;;;;5068933;28;20044;-89
2023/10/30 14:48:01;;;;;;;2.22;0.73;;;;;;;;;;5077889;28;20039;-88